createdAt,value
2023-04-21T05:03:21.672Z,25.00
2023-04-21T05:04:21.845Z,25.00
2023-04-21T05:05:22.431Z,25.00
2023-04-21T05:06:21.438Z,25.00
2023-04-21T05:07:21.484Z,25.00
2023-04-21T05:08:22.520Z,25.00
2023-04-21T05:09:21.548Z,0.00
2023-04-21T05:10:21.556Z,0.00
2023-04-21T05:11:21.552Z,0.00
2023-04-21T05:12:22.593Z,0.00
2023-04-21T05:13:22.666Z,0.00
2023-04-21T05:14:22.737Z,0.00
2023-04-21T05:15:22.771Z,0.00
2023-04-21T05:16:21.862Z,0.00
2023-04-21T05:17:21.878Z,0.00
2023-04-21T05:18:22.910Z,0.00
2023-04-21T05:19:21.926Z,0.00
2023-04-21T05:20:22.972Z,0.00
2023-04-21T05:21:22.016Z,0.00
2023-04-21T05:22:23.043Z,0.00
2023-04-21T05:23:23.081Z,0.00
2023-04-21T05:24:23.144Z,0.00
2023-04-21T05:25:23.175Z,0.00
2023-04-21T05:26:23.241Z,9.64
2023-04-21T05:27:22.285Z,15.83
2023-04-21T05:28:23.306Z,25.06
2023-04-21T05:29:23.392Z,37.51
2023-04-21T05:30:23.387Z,25.00
2023-04-21T05:31:22.451Z,25.18
2023-04-21T05:32:22.923Z,25.00
2023-04-21T05:33:23.549Z,34.39
2023-04-21T05:34:23.573Z,27.68
2023-04-21T05:35:23.616Z,36.00
2023-04-21T05:36:23.788Z,26.26
2023-04-21T05:37:23.699Z,25.14
2023-04-21T05:38:23.734Z,55.62
2023-04-21T05:39:22.829Z,34.13
2023-04-21T05:40:23.838Z,43.63
2023-04-21T05:41:23.945Z,28.96
2023-04-21T05:42:23.948Z,26.27
2023-04-21T05:43:23.964Z,29.44
2023-04-21T05:44:23.995Z,32.68
2023-04-21T05:45:24.080Z,32.96
2023-04-21T05:46:23.242Z,38.14
2023-04-21T05:47:23.134Z,36.72
2023-04-21T05:48:24.066Z,45.84
2023-04-21T05:49:24.077Z,47.88
2023-04-21T05:50:24.150Z,52.08
2023-04-21T05:51:23.499Z,45.45
2023-04-21T05:52:23.542Z,54.46
2023-04-21T05:53:24.514Z,52.07
2023-04-21T05:54:24.340Z,57.91
2023-04-21T05:55:23.661Z,54.46
2023-04-21T05:56:23.427Z,67.33
2023-04-21T05:57:24.436Z,72.87
2023-04-21T05:58:23.487Z,88.69
2023-04-21T05:59:23.468Z,80.13
2023-04-21T06:00:23.450Z,87.27
2023-04-21T06:01:24.590Z,89.03
2023-04-21T06:02:23.766Z,88.32
2023-04-21T06:03:24.911Z,95.72
2023-04-21T06:04:24.796Z,103.24
2023-04-21T06:05:24.638Z,107.96
2023-04-21T06:06:24.544Z,112.44
2023-04-21T06:07:24.598Z,120.13
2023-04-21T06:08:23.619Z,121.41
2023-04-21T06:09:24.659Z,124.11
2023-04-21T06:10:24.684Z,128.44
2023-04-21T06:11:23.716Z,122.75
2023-04-21T06:12:24.747Z,127.84
2023-04-21T06:13:24.771Z,128.54
2023-04-21T06:14:24.776Z,133.22
2023-04-21T06:15:24.838Z,130.18
2023-04-21T06:16:24.868Z,126.67
2023-04-21T06:17:23.888Z,137.90
2023-04-21T06:18:25.097Z,142.76
2023-04-21T06:19:23.803Z,144.88
2023-04-21T06:20:24.862Z,152.32
2023-04-21T06:21:24.817Z,148.38
2023-04-21T06:22:24.840Z,149.06
2023-04-21T06:23:23.825Z,154.91
2023-04-21T06:24:23.870Z,156.92
2023-04-21T06:25:24.917Z,155.29
2023-04-21T06:26:23.939Z,161.45
2023-04-21T06:27:24.227Z,162.91
2023-04-21T06:28:25.056Z,166.98
2023-04-21T06:29:24.568Z,176.56
2023-04-21T06:30:25.397Z,170.98
2023-04-21T06:31:25.296Z,172.03
2023-04-21T06:32:24.256Z,173.05
2023-04-21T06:33:25.372Z,171.78
2023-04-21T06:34:24.438Z,175.84
2023-04-21T06:35:25.480Z,175.95
2023-04-21T06:36:24.469Z,174.86
2023-04-21T06:37:24.442Z,180.08
2023-04-21T06:38:24.527Z,177.77
2023-04-21T06:39:24.622Z,185.12
2023-04-21T06:40:24.591Z,184.01
2023-04-21T06:41:24.946Z,180.64
2023-04-21T06:42:25.657Z,181.74
2023-04-21T06:43:24.639Z,180.34
2023-04-21T06:44:25.680Z,182.52
2023-04-21T06:45:25.710Z,184.85
2023-04-21T06:46:24.789Z,187.96
2023-04-21T06:47:26.069Z,195.21
2023-04-21T06:48:24.894Z,189.58
2023-04-21T06:49:25.838Z,191.76
2023-04-21T06:50:25.915Z,193.17
2023-04-21T06:51:25.967Z,185.89
2023-04-21T06:52:24.876Z,178.81
2023-04-21T06:53:26.089Z,184.96
2023-04-21T06:54:24.997Z,187.57
2023-04-21T06:55:26.017Z,195.61
2023-04-21T06:56:25.568Z,186.42
2023-04-21T06:57:26.188Z,186.80
2023-04-21T06:58:26.158Z,190.20
2023-04-21T06:59:26.258Z,184.74
2023-04-21T07:00:25.306Z,182.84
2023-04-21T07:01:26.432Z,179.25
2023-04-21T07:02:26.478Z,178.98
2023-04-21T07:03:26.519Z,178.75
2023-04-21T07:04:26.567Z,178.74
2023-04-21T07:05:25.550Z,175.29
2023-04-21T07:06:25.598Z,174.31
2023-04-21T07:07:26.618Z,175.42
2023-04-21T07:08:25.901Z,175.03
2023-04-21T07:09:26.703Z,174.37
2023-04-21T07:10:26.917Z,171.21
2023-04-21T07:11:25.731Z,174.84
2023-04-21T07:12:25.750Z,172.50
2023-04-21T07:13:25.759Z,169.06
2023-04-21T07:14:25.767Z,172.15
2023-04-21T07:15:26.791Z,166.49
2023-04-21T07:16:26.817Z,171.31
2023-04-21T07:17:26.813Z,172.79
2023-04-21T07:18:26.806Z,168.34
2023-04-21T07:19:26.810Z,169.48
2023-04-21T07:20:26.971Z,167.42
2023-04-21T07:21:26.781Z,168.26
2023-04-21T07:22:25.772Z,165.80
2023-04-21T07:23:25.776Z,165.30
2023-04-21T07:24:25.784Z,167.12
2023-04-21T07:25:25.814Z,161.84
2023-04-21T07:26:26.810Z,162.63
2023-04-21T07:27:26.810Z,162.77
2023-04-21T07:28:25.801Z,161.90
2023-04-21T07:29:26.819Z,162.51
2023-04-21T07:30:26.916Z,164.56
2023-04-21T07:31:26.883Z,161.54
2023-04-21T07:32:26.927Z,161.66
2023-04-21T07:33:26.812Z,156.41
2023-04-21T07:34:25.900Z,161.65
2023-04-21T07:35:26.924Z,157.15
2023-04-21T07:36:25.923Z,159.09
2023-04-21T07:37:26.930Z,158.67
2023-04-21T07:38:26.946Z,161.76
2023-04-21T07:39:27.004Z,165.62
2023-04-21T07:40:27.111Z,161.84
2023-04-21T07:41:27.111Z,159.45
2023-04-21T07:42:27.299Z,162.76
2023-04-21T07:43:27.208Z,165.88
2023-04-21T07:44:27.338Z,161.16
2023-04-21T07:45:26.342Z,164.72
2023-04-21T07:46:27.468Z,165.86
2023-04-21T07:47:27.501Z,155.47
2023-04-21T07:48:27.543Z,142.31
2023-04-21T07:49:26.579Z,131.75
2023-04-21T07:50:26.708Z,137.07
2023-04-21T07:51:27.120Z,127.40
2023-04-21T07:52:27.559Z,125.74
2023-04-21T07:53:27.584Z,122.68
2023-04-21T07:54:27.651Z,121.97
2023-04-21T07:55:27.614Z,118.40
2023-04-21T07:56:27.656Z,110.93
2023-04-21T07:57:27.661Z,111.37
2023-04-21T07:58:26.670Z,108.72
2023-04-21T07:59:27.700Z,103.93
2023-04-21T08:00:27.750Z,102.04
2023-04-21T08:01:26.811Z,101.23
2023-04-21T08:02:26.881Z,99.31
2023-04-21T08:03:27.094Z,97.77
2023-04-21T08:04:26.932Z,99.52
2023-04-21T08:05:31.345Z,92.31
2023-04-21T08:06:28.100Z,92.50
2023-04-21T08:07:27.937Z,92.47
2023-04-21T08:08:28.784Z,87.51
2023-04-21T08:09:26.936Z,88.57
2023-04-21T08:10:27.880Z,82.14
2023-04-21T08:11:27.161Z,85.97
2023-04-21T08:12:26.860Z,80.24
2023-04-21T08:13:27.947Z,75.37
2023-04-21T08:14:27.004Z,77.68
2023-04-21T08:15:26.848Z,74.27
2023-04-21T08:16:26.877Z,74.49
2023-04-21T08:17:28.128Z,70.78
2023-04-21T08:18:26.872Z,72.01
2023-04-21T08:19:26.822Z,71.32
2023-04-21T08:20:27.826Z,69.70
2023-04-21T08:21:29.465Z,69.34
2023-04-21T08:22:26.870Z,69.76
2023-04-21T08:23:27.851Z,69.46
2023-04-21T08:24:27.801Z,67.00
2023-04-21T08:25:27.762Z,64.70
2023-04-21T08:26:26.877Z,67.24
2023-04-21T08:27:27.775Z,58.19
2023-04-21T08:28:27.755Z,60.91
2023-04-21T08:29:26.768Z,59.48
2023-04-21T08:30:27.822Z,54.46
2023-04-21T08:31:27.845Z,57.45
2023-04-21T08:32:26.818Z,56.13
2023-04-21T08:33:26.753Z,54.31
2023-04-21T08:34:28.001Z,59.25
2023-04-21T08:35:26.724Z,50.90
2023-04-21T08:36:29.868Z,52.39
2023-04-21T08:37:27.721Z,51.94
2023-04-21T08:38:26.715Z,50.58
2023-04-21T08:39:27.687Z,52.96
2023-04-21T08:40:27.699Z,53.54
2023-04-21T08:41:27.669Z,44.54
2023-04-21T08:42:27.130Z,46.57
2023-04-21T08:43:26.671Z,37.90
2023-04-21T08:44:27.651Z,40.82
2023-04-21T08:45:27.859Z,38.75
2023-04-21T08:46:27.798Z,34.48
2023-04-21T08:47:27.716Z,21.53
2023-04-21T08:48:26.628Z,26.61
2023-04-21T08:49:26.655Z,25.00
2023-04-21T08:50:27.620Z,27.49
2023-04-21T08:51:26.610Z,25.65
2023-04-21T08:52:26.626Z,26.35
2023-04-21T08:53:26.723Z,29.53
2023-04-21T08:54:29.881Z,29.43
2023-04-21T08:55:27.604Z,18.65
2023-04-21T08:56:27.599Z,21.38
2023-04-21T08:57:27.649Z,8.57
2023-04-21T08:58:27.571Z,4.03
2023-04-21T08:59:27.588Z,7.18
2023-04-21T09:00:26.645Z,27.85
2023-04-21T09:01:26.616Z,25.08
2023-04-21T09:02:26.658Z,25.00
2023-04-21T09:03:26.752Z,30.65
2023-04-21T09:04:28.884Z,29.39
2023-04-21T09:05:27.796Z,26.52
2023-04-21T09:06:27.701Z,25.00
2023-04-21T09:07:27.753Z,25.63
2023-04-21T09:08:26.830Z,27.78
2023-04-21T09:09:26.884Z,29.03
2023-04-21T09:10:27.968Z,39.08
2023-04-21T09:11:27.997Z,28.50
2023-04-21T09:12:28.083Z,25.00
2023-04-21T09:13:28.138Z,25.25
2023-04-21T09:14:28.191Z,25.00
2023-04-21T09:15:28.234Z,29.33
2023-04-21T09:16:28.324Z,28.12
2023-04-21T09:17:28.357Z,25.81
2023-04-21T09:18:28.345Z,25.06
2023-04-21T09:19:28.314Z,25.00
2023-04-21T09:20:28.333Z,25.00
2023-04-21T09:21:30.062Z,25.00
2023-04-21T09:22:27.342Z,25.25
2023-04-21T09:23:28.387Z,25.08
2023-04-21T09:24:28.312Z,22.46
2023-04-21T09:25:28.318Z,21.96
2023-04-21T09:26:28.311Z,14.71
2023-04-21T09:27:28.290Z,25.12
2023-04-21T09:28:28.281Z,30.28
2023-04-21T09:29:28.314Z,37.89
2023-04-21T09:30:28.256Z,34.46
2023-04-21T09:31:28.345Z,38.27
2023-04-21T09:32:28.326Z,30.05
2023-04-21T09:33:30.943Z,28.47
2023-04-21T09:34:28.289Z,28.78
2023-04-21T09:35:28.242Z,29.81
2023-04-21T09:36:28.257Z,31.26
2023-04-21T09:37:28.235Z,40.94
2023-04-21T09:38:28.216Z,46.44
2023-04-21T09:39:42.654Z,52.23
2023-04-21T09:40:28.199Z,52.40
2023-04-21T09:41:28.185Z,52.50
2023-04-21T09:42:28.257Z,50.72
2023-04-21T09:43:28.216Z,54.23
2023-04-21T09:44:28.257Z,49.64
2023-04-21T09:45:36.961Z,55.09
2023-04-21T09:46:28.370Z,55.46
2023-04-21T09:47:28.675Z,56.46
2023-04-21T09:48:28.152Z,56.47
2023-04-21T09:49:28.166Z,56.41
2023-04-21T09:51:01.794Z,77.56
2023-04-21T09:51:37.282Z,55.88
2023-04-21T09:52:28.101Z,56.12
2023-04-21T09:53:28.185Z,58.37
2023-04-21T09:54:29.986Z,63.22
2023-04-21T09:55:28.087Z,56.03
2023-04-21T09:56:28.082Z,56.47
2023-04-21T09:57:28.073Z,57.56
2023-04-21T09:58:27.066Z,58.52
2023-04-21T09:59:28.080Z,66.75
2023-04-21T10:00:28.055Z,72.50
2023-04-21T10:01:27.075Z,71.01
2023-04-21T10:02:28.237Z,68.11
2023-04-21T10:03:28.187Z,79.43
2023-04-21T10:04:27.758Z,78.08
2023-04-21T10:05:27.080Z,85.60
2023-04-21T10:06:28.041Z,79.03
2023-04-21T10:07:28.046Z,55.48
2023-04-21T10:08:28.006Z,65.64
2023-04-21T10:09:27.015Z,79.18
2023-04-21T10:10:27.015Z,63.80
2023-04-21T10:11:27.001Z,56.57
2023-04-21T10:12:26.964Z,60.88
2023-04-21T10:13:27.956Z,67.74
2023-04-21T10:14:27.959Z,69.19
2023-04-21T10:15:27.989Z,84.07
2023-04-21T10:16:28.028Z,88.06
2023-04-21T10:17:27.121Z,58.48
2023-04-21T10:18:26.916Z,57.30
2023-04-21T10:19:27.981Z,63.02
2023-04-21T10:20:27.926Z,57.82
2023-04-21T10:21:27.919Z,45.07
2023-04-21T10:22:26.913Z,38.88
2023-04-21T10:23:27.918Z,39.86
2023-04-21T10:24:27.858Z,57.98
2023-04-21T10:25:28.086Z,43.67
2023-04-21T10:26:27.867Z,25.00
2023-04-21T10:27:27.890Z,30.67
2023-04-21T10:28:27.881Z,27.65
2023-04-21T10:29:26.959Z,31.53
2023-04-21T10:30:28.000Z,53.72
2023-04-21T10:31:28.038Z,54.69
2023-04-21T10:32:28.152Z,35.73
2023-04-21T10:33:27.098Z,73.78
2023-04-21T10:34:27.138Z,76.94
2023-04-21T10:35:28.234Z,74.14
2023-04-21T10:36:27.184Z,33.76
2023-04-21T10:37:28.264Z,41.29
2023-04-21T10:38:27.223Z,34.50
2023-04-21T10:39:28.192Z,23.40
2023-04-21T10:40:42.560Z,25.00
2023-04-21T10:41:28.228Z,25.49
2023-04-21T10:42:28.188Z,27.41
2023-04-21T10:43:28.751Z,37.18
2023-04-21T10:44:27.301Z,68.09
2023-04-21T10:45:28.591Z,123.70
2023-04-21T10:46:28.261Z,149.92
2023-04-21T10:47:27.368Z,156.97
2023-04-21T10:48:27.196Z,163.22
2023-04-21T10:49:27.193Z,171.58
2023-04-21T10:50:28.218Z,197.95
2023-04-21T10:51:28.134Z,198.03
2023-04-21T10:52:28.128Z,196.84
2023-04-21T10:53:27.191Z,189.50
2023-04-21T10:54:27.168Z,202.09
2023-04-21T10:55:28.088Z,203.38
2023-04-21T10:56:27.072Z,182.73
2023-04-21T10:57:28.077Z,182.28
2023-04-21T10:58:27.114Z,202.45
2023-04-21T10:59:27.400Z,191.80
2023-04-21T11:00:28.155Z,252.39
2023-04-21T11:01:27.151Z,195.46
2023-04-21T11:02:28.201Z,209.32
2023-04-21T11:03:28.262Z,224.24
2023-04-21T11:04:28.705Z,249.91
2023-04-21T11:05:28.113Z,250.00
2023-04-21T11:06:28.110Z,243.46
2023-04-21T11:07:27.135Z,231.21
2023-04-21T11:08:28.349Z,205.93
2023-04-21T11:09:28.252Z,204.72
2023-04-21T11:10:27.266Z,175.95
2023-04-21T11:11:28.341Z,192.16
2023-04-21T11:12:27.464Z,205.56
2023-04-21T11:13:28.395Z,160.72
2023-04-21T11:14:27.484Z,229.86
2023-04-21T11:15:27.506Z,199.96
2023-04-21T11:16:28.549Z,193.15
2023-04-21T11:17:27.721Z,201.45
2023-04-21T11:18:28.646Z,191.10
2023-04-21T11:19:27.650Z,212.78
2023-04-21T11:20:27.697Z,174.29
2023-04-21T11:21:28.727Z,164.90
2023-04-21T11:22:28.753Z,165.57
2023-04-21T11:23:28.353Z,226.29
2023-04-21T11:24:27.921Z,201.80
2023-04-21T11:25:28.962Z,211.06
2023-04-21T11:26:28.927Z,204.69
2023-04-21T11:27:28.967Z,188.40
2023-04-21T11:28:27.967Z,188.44
2023-04-21T11:29:27.940Z,339.72
2023-04-21T11:30:27.999Z,229.24
2023-04-21T11:31:29.189Z,225.57
2023-04-21T11:32:29.351Z,216.00
2023-04-21T11:33:28.120Z,207.90
2023-04-21T11:34:28.386Z,197.84
2023-04-21T11:35:28.190Z,201.00
2023-04-21T11:36:29.204Z,204.19
2023-04-21T11:37:29.256Z,200.93
2023-04-21T11:38:29.672Z,209.20
2023-04-21T11:39:29.297Z,207.39
2023-04-21T11:40:29.313Z,217.36
2023-04-21T11:41:28.416Z,217.27
2023-04-21T11:42:28.386Z,210.65
2023-04-21T11:43:29.410Z,215.91
2023-04-21T11:44:28.391Z,210.84
2023-04-21T11:45:29.421Z,209.18
2023-04-21T11:46:29.480Z,217.40
2023-04-21T11:47:29.507Z,211.49
2023-04-21T11:48:28.517Z,209.53
2023-04-21T11:49:28.533Z,207.42
2023-04-21T11:50:28.539Z,205.33
2023-04-21T11:51:28.561Z,204.98
2023-04-21T11:52:29.658Z,202.48
2023-04-21T11:53:29.624Z,201.69
2023-04-21T11:54:28.663Z,192.60
2023-04-21T11:55:29.668Z,195.58
2023-04-21T11:56:29.691Z,199.02
2023-04-21T11:57:29.701Z,201.71
2023-04-21T11:58:29.725Z,194.02
2023-04-21T11:59:28.718Z,198.54
2023-04-21T12:00:28.789Z,192.17
2023-04-21T12:01:29.750Z,191.51
2023-04-21T12:02:28.904Z,191.98
2023-04-21T12:03:29.879Z,191.48
2023-04-21T12:04:29.891Z,187.77
2023-04-21T12:05:28.785Z,187.19
2023-04-21T12:06:29.788Z,191.41
2023-04-21T12:07:28.788Z,193.63
2023-04-21T12:08:28.774Z,186.67
2023-04-21T12:09:28.770Z,193.60
2023-04-21T12:10:28.765Z,188.48
2023-04-21T12:11:29.767Z,191.17
2023-04-21T12:12:28.758Z,190.13
2023-04-21T12:13:28.862Z,188.02
2023-04-21T12:14:28.780Z,200.65
2023-04-21T12:15:28.776Z,194.53
2023-04-21T12:16:29.875Z,192.17
2023-04-21T12:17:28.856Z,193.14
2023-04-21T12:18:29.893Z,192.62
2023-04-21T12:19:29.964Z,189.36
2023-04-21T12:20:30.388Z,188.75
2023-04-21T12:21:29.140Z,190.58
2023-04-21T12:22:30.153Z,196.45
2023-04-21T12:23:29.241Z,191.83
2023-04-21T12:24:29.279Z,191.51
2023-04-21T12:25:29.382Z,196.08
2023-04-21T12:26:29.399Z,197.07
2023-04-21T12:27:30.464Z,199.45
2023-04-21T12:28:30.560Z,196.05
2023-04-21T12:29:30.620Z,197.12
2023-04-21T12:30:30.780Z,198.28
2023-04-21T12:31:30.758Z,194.68
2023-04-21T12:32:29.771Z,199.31
2023-04-21T12:33:30.882Z,195.09
2023-04-21T12:34:29.908Z,189.80
2023-04-21T12:35:30.920Z,188.39
2023-04-21T12:36:30.065Z,193.23
2023-04-21T12:37:31.089Z,186.69
2023-04-21T12:38:30.204Z,183.45
2023-04-21T12:39:31.597Z,179.75
2023-04-21T12:40:31.162Z,182.42
2023-04-21T12:41:30.223Z,182.15
2023-04-21T12:42:31.257Z,193.14
2023-04-21T12:43:31.312Z,186.88
2023-04-21T12:44:30.368Z,200.24
2023-04-21T12:45:31.478Z,187.22
2023-04-21T12:46:30.489Z,184.90
2023-04-21T12:47:30.527Z,188.37
2023-04-21T12:48:30.598Z,193.93
2023-04-21T12:49:31.818Z,194.77
2023-04-21T12:50:31.693Z,191.04
2023-04-21T12:51:31.711Z,197.17
2023-04-21T12:52:31.758Z,170.61
2023-04-21T12:53:31.401Z,206.80
2023-04-21T12:54:31.801Z,201.06
2023-04-21T12:55:30.828Z,182.15
2023-04-21T12:56:30.896Z,166.38
2023-04-21T12:57:31.904Z,135.41
2023-04-21T12:58:31.962Z,154.21
2023-04-21T12:59:31.239Z,151.42
2023-04-21T13:00:32.060Z,189.30
2023-04-21T13:01:32.134Z,183.19
2023-04-21T13:02:31.272Z,166.40
2023-04-21T13:03:32.361Z,159.48
2023-04-21T13:04:32.653Z,158.14
2023-04-21T13:05:32.239Z,149.89
2023-04-21T13:06:31.203Z,177.83
2023-04-21T13:07:32.235Z,183.31
2023-04-21T13:08:31.255Z,177.41
2023-04-21T13:09:32.522Z,187.37
2023-04-21T13:10:31.251Z,169.89
2023-04-21T13:11:31.250Z,163.25
2023-04-21T13:12:31.268Z,182.24
2023-04-21T13:13:32.252Z,187.32
2023-04-21T13:14:32.273Z,178.63
2023-04-21T13:15:32.225Z,166.32
2023-04-21T13:16:32.354Z,175.26
2023-04-21T13:17:32.317Z,180.52
2023-04-21T13:18:31.340Z,179.06
2023-04-21T13:19:32.795Z,178.68
2023-04-21T13:20:32.448Z,170.53
2023-04-21T13:21:32.527Z,176.40
2023-04-21T13:22:31.576Z,173.95
2023-04-21T13:23:32.649Z,171.97
2023-04-21T13:24:32.749Z,178.84
2023-04-21T13:25:32.758Z,187.95
2023-04-21T13:26:32.779Z,189.51
2023-04-21T13:27:32.917Z,187.26
2023-04-21T13:28:31.951Z,190.73
2023-04-21T13:29:33.272Z,199.74
2023-04-21T13:30:32.987Z,197.98
2023-04-21T13:31:32.168Z,194.55
2023-04-21T13:32:33.186Z,205.58
2023-04-21T13:33:32.178Z,200.60
2023-04-21T13:34:32.470Z,203.36
2023-04-21T13:35:33.233Z,205.52
2023-04-21T13:36:33.275Z,200.59
2023-04-21T13:37:32.341Z,200.70
2023-04-21T13:38:32.701Z,221.00
2023-04-21T13:39:32.757Z,143.25
2023-04-21T13:40:33.464Z,62.92
2023-04-21T13:41:33.527Z,59.03
2023-04-21T13:42:33.478Z,53.08
2023-04-21T13:43:32.480Z,36.26
2023-04-21T13:44:32.493Z,24.43
2023-04-21T13:45:32.519Z,25.88
2023-04-21T13:46:32.571Z,29.61
2023-04-21T13:47:33.577Z,28.99
2023-04-21T13:48:33.831Z,29.48
2023-04-21T13:49:33.887Z,36.51
2023-04-21T13:50:32.524Z,30.83
2023-04-21T13:51:32.525Z,28.83
2023-04-21T13:52:32.572Z,33.99
2023-04-21T13:53:33.047Z,266.05
2023-04-21T13:54:32.829Z,117.72
2023-04-21T13:55:32.619Z,56.87
2023-04-21T13:56:32.670Z,40.08
2023-04-21T13:57:33.692Z,32.25
2023-04-21T13:58:32.748Z,27.15
2023-04-21T13:59:33.999Z,29.14
2023-04-21T14:00:32.770Z,84.43
2023-04-21T14:01:32.888Z,51.38
2023-04-21T14:02:33.168Z,25.97
2023-04-21T14:03:34.048Z,23.34
2023-04-21T14:04:34.188Z,32.07
2023-04-21T14:05:34.417Z,34.17
2023-04-21T14:06:33.087Z,32.53
2023-04-21T14:07:33.259Z,38.61
2023-04-21T14:08:34.184Z,43.63
2023-04-21T14:09:33.531Z,42.23
2023-04-21T14:10:33.323Z,67.30
2023-04-21T14:11:34.335Z,59.27
2023-04-21T14:12:34.369Z,70.19
2023-04-21T14:13:39.823Z,75.89
2023-04-21T14:15:33.484Z,76.52
2023-04-21T14:16:33.477Z,74.01
2023-04-21T14:17:34.419Z,75.38
2023-04-21T14:18:34.450Z,93.93
2023-04-21T14:19:34.773Z,89.55
2023-04-21T14:20:33.423Z,73.09
2023-04-21T14:21:34.389Z,70.21
2023-04-21T14:22:33.359Z,81.18
2023-04-21T14:23:33.390Z,101.51
2023-04-21T14:24:34.377Z,97.51
2023-04-21T14:25:34.368Z,104.85
2023-04-21T14:26:34.313Z,49.22
2023-04-21T14:27:34.419Z,60.48
2023-04-21T14:28:33.343Z,28.44
2023-04-21T14:29:34.575Z,60.29
2023-04-21T14:30:34.385Z,31.39
2023-04-21T14:31:34.307Z,79.68
2023-04-21T14:32:33.801Z,36.19
2023-04-21T14:33:34.323Z,37.10
2023-04-21T14:34:34.290Z,35.81
2023-04-21T14:35:34.281Z,80.10
2023-04-21T14:36:34.356Z,95.28
2023-04-21T14:37:33.340Z,79.33
2023-04-21T14:38:34.542Z,148.27
2023-04-21T14:39:33.551Z,86.84
2023-04-21T14:40:33.494Z,119.09
2023-04-21T14:41:33.448Z,118.20
2023-04-21T14:42:33.438Z,59.55
2023-04-21T14:43:34.466Z,71.98
2023-04-21T14:44:34.481Z,87.19
2023-04-21T14:45:34.481Z,102.64
2023-04-21T14:46:33.639Z,96.30
2023-04-21T14:47:33.611Z,116.80
2023-04-21T14:48:34.622Z,89.15
2023-04-21T14:49:34.903Z,47.98
2023-04-21T14:50:33.733Z,29.79
2023-04-21T14:51:34.800Z,40.98
2023-04-21T14:52:34.768Z,30.24
2023-04-21T14:53:34.851Z,21.92
2023-04-21T14:54:33.768Z,34.63
2023-04-21T14:55:34.808Z,75.07
2023-04-21T14:56:34.819Z,84.30
2023-04-21T14:57:33.804Z,91.85
2023-04-21T14:58:33.881Z,112.85
2023-04-21T14:59:34.042Z,124.06
2023-04-21T15:00:35.015Z,124.04
2023-04-21T15:01:35.037Z,143.25
2023-04-21T15:02:35.046Z,130.39
2023-04-21T15:03:34.080Z,106.53
2023-04-21T15:04:34.216Z,112.57
2023-04-21T15:05:35.092Z,105.99
2023-04-21T15:06:34.079Z,84.48
2023-04-21T15:07:35.115Z,96.71
2023-04-21T15:08:35.116Z,136.54
2023-04-21T15:09:34.242Z,125.83
2023-04-21T15:10:34.092Z,124.05
2023-04-21T15:11:34.083Z,136.47
2023-04-21T15:12:36.374Z,137.42
2023-04-21T15:13:35.160Z,143.80
2023-04-21T15:14:34.235Z,165.94
2023-04-21T15:15:35.248Z,161.15
2023-04-21T15:16:35.362Z,172.51
2023-04-21T15:17:34.427Z,168.89
2023-04-21T15:18:34.450Z,180.16
2023-04-21T15:19:35.740Z,181.85
2023-04-21T15:20:44.472Z,192.52
2023-04-21T15:21:35.521Z,192.62
2023-04-21T15:22:35.533Z,195.56
2023-04-21T15:23:34.559Z,196.68
2023-04-21T15:24:34.616Z,203.93
2023-04-21T15:25:34.506Z,209.39
2023-04-21T15:26:35.524Z,208.94
2023-04-21T15:27:34.513Z,223.16
2023-04-21T15:28:35.509Z,226.13
2023-04-21T15:29:34.672Z,225.30
2023-04-21T16:03:59.763Z,25.00
2023-04-21T16:05:00.758Z,25.00
2023-04-21T16:06:00.798Z,25.00
2023-04-21T16:06:59.615Z,25.00
2023-04-21T16:07:59.617Z,25.00
2023-04-21T16:08:59.695Z,25.00
2023-04-21T16:09:59.668Z,11.29
2023-04-21T16:11:00.913Z,14.48
2023-04-21T16:11:59.718Z,17.12
2023-04-21T16:12:59.766Z,25.34
2023-04-21T16:14:00.864Z,25.49
2023-04-21T16:15:09.297Z,25.00
2023-04-21T16:16:00.882Z,25.05
2023-04-21T16:16:59.843Z,12.80
2023-04-21T16:18:00.852Z,5.10
2023-04-21T16:18:59.763Z,0.00
2023-04-21T16:20:01.019Z,0.00
2023-04-21T16:21:00.778Z,12.69
2023-04-21T16:22:00.746Z,25.00
2023-04-21T16:22:59.728Z,25.00
2023-04-21T16:23:59.758Z,29.64
2023-04-21T16:25:00.909Z,25.75
2023-04-21T16:26:00.753Z,27.21
2023-04-21T16:26:59.704Z,30.48
2023-04-21T16:28:00.727Z,27.23
2023-04-21T16:29:00.670Z,35.85
2023-04-21T16:30:00.701Z,40.85
2023-04-21T16:31:00.655Z,43.50
2023-04-21T16:31:59.718Z,50.54
2023-04-21T16:33:00.651Z,45.58
2023-04-21T16:34:00.789Z,40.08
2023-04-21T16:35:00.713Z,35.33
2023-04-21T16:36:00.680Z,44.89
2023-04-21T16:37:00.664Z,33.70
2023-04-21T16:37:59.607Z,29.35
2023-04-21T16:39:00.594Z,46.50
2023-04-21T16:40:00.688Z,44.76
2023-04-21T16:40:59.639Z,42.57
2023-04-21T16:42:00.585Z,46.85
2023-04-21T16:42:59.578Z,32.86
2023-04-21T16:43:59.624Z,25.00
2023-04-21T16:45:00.595Z,31.64
2023-04-21T16:46:00.600Z,34.83
2023-04-21T16:46:59.594Z,42.24
2023-04-21T16:48:00.723Z,28.43
2023-04-21T16:48:59.623Z,40.58
2023-04-21T16:49:59.519Z,39.00
2023-04-21T16:50:59.549Z,40.89
2023-04-21T16:52:00.547Z,50.90
2023-04-21T16:53:00.535Z,39.88
2023-04-21T16:54:00.511Z,24.24
2023-04-21T16:55:00.491Z,45.70
2023-04-21T16:55:59.508Z,45.81
2023-04-21T16:57:00.482Z,40.12
2023-04-21T16:57:59.465Z,40.79
2023-04-21T16:59:00.448Z,35.30
2023-04-21T16:59:59.450Z,50.25
2023-04-21T17:00:59.586Z,39.51
2023-04-21T17:01:59.540Z,42.51
2023-04-21T17:03:00.708Z,46.11
2023-04-21T17:04:00.766Z,42.34
2023-04-21T17:04:59.620Z,27.04
2023-04-21T17:05:59.679Z,25.80
2023-04-21T17:07:00.690Z,52.51
2023-04-21T17:07:59.971Z,63.09
2023-04-21T17:09:00.775Z,54.87
2023-04-21T17:09:59.784Z,46.70
2023-04-21T17:11:01.035Z,56.31
2023-04-21T17:12:00.830Z,62.40
2023-04-21T17:12:59.838Z,64.58
2023-04-21T17:13:59.865Z,72.86
2023-04-21T17:15:00.880Z,80.09
2023-04-21T17:16:01.044Z,78.18
2023-04-21T17:17:01.096Z,105.00
2023-04-21T17:18:00.126Z,92.24
2023-04-21T17:19:01.108Z,98.93
2023-04-21T17:20:00.168Z,87.25
2023-04-21T17:21:00.146Z,81.00
2023-04-21T17:22:01.128Z,77.10
2023-04-21T17:23:00.156Z,80.95
2023-04-21T17:24:01.187Z,77.47
2023-04-21T17:25:00.359Z,70.13
2023-04-21T17:26:01.226Z,70.07
2023-04-21T17:27:01.228Z,71.22
2023-04-21T17:28:00.253Z,70.21
2023-04-21T17:29:00.296Z,70.01
2023-04-21T17:30:00.354Z,68.50
2023-04-21T17:31:14.334Z,72.25
2023-04-21T17:32:01.391Z,72.32
2023-04-21T17:33:15.560Z,70.34
2023-04-21T17:34:01.349Z,72.54
2023-04-21T17:35:01.368Z,72.35
2023-04-21T17:36:03.356Z,72.99
2023-04-21T17:37:00.321Z,72.25
2023-04-21T17:38:01.316Z,70.97
2023-04-21T17:39:01.308Z,68.35
2023-04-21T17:40:02.436Z,62.70
2023-04-21T17:41:00.325Z,63.89
2023-04-21T17:42:00.307Z,65.84
2023-04-21T17:43:01.293Z,67.81
2023-04-21T17:44:01.282Z,68.80
2023-04-21T17:45:00.281Z,62.80
2023-04-21T17:46:01.305Z,68.24
2023-04-21T17:47:00.248Z,67.65
2023-04-21T17:48:00.340Z,64.22
2023-04-21T17:49:00.244Z,67.79
2023-04-21T17:50:00.323Z,63.15
2023-04-21T17:51:01.227Z,61.89
2023-04-21T17:52:00.214Z,68.77
2023-04-21T17:53:01.198Z,65.88
2023-04-21T17:54:01.222Z,60.90
2023-04-21T17:55:00.206Z,57.45
2023-04-21T17:56:00.251Z,50.20
2023-04-21T17:57:01.189Z,56.99
2023-04-21T17:58:00.191Z,57.51
2023-04-21T17:59:01.172Z,54.43
2023-04-21T18:00:01.164Z,52.38
2023-04-21T18:01:01.161Z,53.25
2023-04-21T18:02:01.316Z,53.21
2023-04-21T18:03:01.235Z,55.55
2023-04-21T18:04:01.590Z,53.06
2023-04-21T18:05:01.171Z,52.17
2023-04-21T18:06:01.138Z,55.44
2023-04-21T18:07:01.121Z,54.41
2023-04-21T18:08:01.098Z,56.73
2023-04-21T18:09:01.101Z,55.36
2023-04-21T18:10:01.082Z,58.45
2023-04-21T18:11:01.117Z,54.47
2023-04-21T18:12:00.152Z,50.84
2023-04-21T18:13:01.123Z,54.04
2023-04-21T18:14:01.052Z,50.69
2023-04-21T18:15:01.046Z,55.63
2023-04-21T18:16:01.078Z,51.84
2023-04-21T18:17:01.049Z,50.26
2023-04-21T18:18:00.144Z,53.81
2023-04-21T18:19:01.015Z,50.10
2023-04-21T18:20:01.015Z,54.79